Bucktail, Nebraska
Current Conditions -  °F | °C
As of 8:55 PM on Thursday 18 Dec 2014 (Local Time) from KOGA Reporting Station
Clear Clear  
Wind Chill: 17°   Ceiling: Unl
Heat Index: 17°   Visibility: 7mi
Dew Point: 15°   Wind: 0mph
Humidity: 93%   Direction: NA
Pressure: 30.1"   Gusts: NA
Location:  41.2105°N, 101.376°W
Report Text: KOGA 190355Z AUTO 00000KT 7SM CLR M09/M10 A3010 RMK AO2 T10861096
Loading
Personal Weather Stations






























Interactive Weather Map New forecast layout! Learn more

10-Day Weather Forecast

Advertisements
Track Severe Weather on mobile